createdAt,value
2023-01-26T00:01:39.231Z,25.13
2023-01-26T00:04:12.470Z,24.35
2023-01-26T00:06:42.921Z,23.13
2023-01-26T00:09:17.308Z,21.07
2023-01-26T00:11:47.715Z,22.00
2023-01-26T00:14:17.996Z,22.07
2023-01-26T00:16:48.255Z,21.67
2023-01-26T00:19:21.469Z,21.53
2023-01-26T00:21:51.831Z,22.83
2023-01-26T00:24:22.261Z,22.13
2023-01-26T00:26:52.562Z,23.90
2023-01-26T00:29:23.192Z,21.47
2023-01-26T00:31:53.568Z,22.48
2023-01-26T00:34:27.530Z,22.20
2023-01-26T00:37:00.595Z,23.17
2023-01-26T00:39:30.943Z,21.97
2023-01-26T00:42:10.473Z,21.33
2023-01-26T00:44:41.590Z,21.27
2023-01-26T00:47:18.059Z,21.13
2023-01-26T00:49:50.937Z,21.60
2023-01-26T00:52:21.853Z,21.73
2023-01-26T00:54:57.881Z,21.77
2023-01-26T00:57:28.328Z,21.77
2023-01-26T01:00:00.329Z,21.27
2023-01-26T01:02:30.709Z,21.67
2023-01-26T01:05:05.704Z,21.80
2023-01-26T01:07:36.636Z,20.60
2023-01-26T01:10:08.670Z,22.27
2023-01-26T01:12:39.212Z,21.43
2023-01-26T01:15:11.853Z,23.17
2023-01-26T01:17:42.809Z,22.23
2023-01-26T01:20:17.607Z,21.48
2023-01-26T01:22:51.867Z,22.93
2023-01-26T01:25:22.294Z,22.53
2023-01-26T01:27:52.636Z,23.03
2023-01-26T01:30:23.130Z,23.40
2023-01-26T01:32:53.610Z,23.57
2023-01-26T01:35:26.644Z,23.20
2023-01-26T01:37:57.127Z,22.87
2023-01-26T01:40:27.512Z,22.70
2023-01-26T01:42:57.911Z,22.87
2023-01-26T01:45:46.239Z,22.20
2023-01-26T01:48:27.513Z,22.30
2023-01-26T01:51:07.123Z,21.33
2023-01-26T01:53:46.611Z,24.60
2023-01-26T01:56:21.943Z,22.67
2023-01-26T01:58:56.629Z,22.03
2023-01-26T02:01:27.636Z,21.03
2023-01-26T02:04:03.617Z,19.92
2023-01-26T02:06:42.841Z,18.40
2023-01-26T02:09:34.985Z,18.73
2023-01-26T02:12:26.252Z,18.37
2023-01-26T02:14:57.312Z,18.80
2023-01-26T02:17:28.375Z,19.92
2023-01-26T02:20:07.653Z,20.30
2023-01-26T02:23:17.539Z,20.27
2023-01-26T02:26:21.270Z,21.40
2023-01-26T02:28:54.528Z,20.73
2023-01-26T02:31:27.242Z,21.20
2023-01-26T02:33:58.825Z,21.27
2023-01-26T02:36:34.736Z,21.53
2023-01-26T02:39:27.742Z,21.63
2023-01-26T02:42:13.399Z,20.80
2023-01-26T02:44:46.577Z,20.37
2023-01-26T02:47:19.545Z,20.20
2023-01-26T02:49:50.606Z,20.20
2023-01-26T02:55:13.798Z,19.83
2023-01-26T02:57:47.329Z,21.97
2023-01-26T03:00:22.544Z,21.27
2023-01-26T03:02:56.947Z,21.90
2023-01-26T03:05:29.245Z,21.63
2023-01-26T03:07:59.660Z,22.38
2023-01-26T03:10:36.553Z,21.80
2023-01-26T03:13:09.759Z,22.80
2023-01-26T03:15:52.886Z,22.57
2023-01-26T03:18:39.073Z,22.57
2023-01-26T03:21:28.641Z,22.13
2023-01-26T03:24:11.474Z,23.77
2023-01-26T03:26:55.543Z,22.53
2023-01-26T03:29:30.535Z,22.07
2023-01-26T03:32:03.729Z,23.60
2023-01-26T03:34:34.926Z,22.60
2023-01-26T03:37:07.349Z,22.17
2023-01-26T03:39:58.071Z,22.57
2023-01-26T03:42:40.919Z,23.30
2023-01-26T03:45:26.899Z,23.23
2023-01-26T03:48:18.709Z,22.93
2023-01-26T03:51:01.484Z,23.67
2023-01-26T03:53:44.195Z,23.00
2023-01-26T03:56:22.344Z,22.70
2023-01-26T03:58:58.276Z,23.20
2023-01-26T04:01:34.724Z,25.37
2023-01-26T04:04:17.687Z,27.17
2023-01-26T04:07:05.252Z,25.10
2023-01-26T04:09:37.150Z,24.97
2023-01-26T04:12:10.805Z,22.83
2023-01-26T04:15:03.037Z,24.73
2023-01-26T04:17:48.374Z,25.33
2023-01-26T04:20:31.655Z,26.37
2023-01-26T04:23:01.992Z,24.70
2023-01-26T04:25:32.409Z,24.33
2023-01-26T04:28:02.744Z,23.37
2023-01-26T04:30:33.473Z,25.80
2023-01-26T04:33:06.644Z,26.00
2023-01-26T04:35:37.237Z,23.83
2023-01-26T04:38:08.234Z,27.20
2023-01-26T04:40:38.590Z,26.20
2023-01-26T04:43:08.907Z,24.90
2023-01-26T04:45:40.029Z,24.17
2023-01-26T04:50:44.784Z,24.03
2023-01-26T04:53:15.088Z,24.90
2023-01-26T04:55:45.318Z,25.20
2023-01-26T04:58:15.772Z,31.53
2023-01-26T05:00:47.577Z,26.52
2023-01-26T05:05:53.243Z,26.50
2023-01-26T05:08:26.085Z,24.77
2023-01-26T05:10:57.260Z,26.53
2023-01-26T05:13:37.541Z,25.00
2023-01-26T05:19:14.131Z,34.00
2023-01-26T05:21:52.308Z,52.78
2023-01-26T05:24:22.778Z,33.70
2023-01-26T05:27:25.932Z,25.80
2023-01-26T05:30:01.849Z,26.73
2023-01-26T05:32:35.002Z,26.30
2023-01-26T05:35:09.278Z,27.92
2023-01-26T05:37:42.116Z,24.57
2023-01-26T05:40:15.364Z,26.93
2023-01-26T05:42:50.440Z,27.50
2023-01-26T05:45:27.691Z,28.07
2023-01-26T05:48:00.597Z,26.93
2023-01-26T05:50:33.846Z,26.00
2023-01-26T05:53:24.414Z,26.73
2023-01-26T05:55:55.192Z,26.67
2023-01-26T05:58:27.799Z,24.47
2023-01-26T06:00:58.092Z,28.97
2023-01-26T06:03:33.348Z,27.67
2023-01-26T06:06:06.422Z,26.90
2023-01-26T06:11:35.339Z,23.67
2023-01-26T06:14:11.404Z,23.73
2023-01-26T06:16:41.877Z,26.02
2023-01-26T06:19:14.194Z,24.67
2023-01-26T06:21:50.029Z,25.60
2023-01-26T06:24:20.480Z,25.90
2023-01-26T06:26:51.505Z,23.10
2023-01-26T06:29:22.530Z,25.73
2023-01-26T06:31:53.273Z,26.30
2023-01-26T06:34:24.744Z,23.77
2023-01-26T06:36:58.008Z,25.15
2023-01-26T06:39:32.856Z,22.00
2023-01-26T06:42:04.209Z,23.20
2023-01-26T06:44:34.588Z,24.10
2023-01-26T06:47:05.016Z,24.27
2023-01-26T06:49:35.606Z,22.98
2023-01-26T06:52:26.041Z,24.23
2023-01-26T06:55:01.911Z,23.07
2023-01-26T06:57:47.986Z,24.80
2023-01-26T07:00:39.792Z,26.03
2023-01-26T07:03:26.386Z,24.90
2023-01-26T07:05:56.686Z,23.77
2023-01-26T07:08:29.552Z,24.23
2023-01-26T07:10:59.852Z,25.30
2023-01-26T07:13:30.128Z,23.57
2023-01-26T07:16:04.559Z,22.42
2023-01-26T07:18:35.520Z,20.97
2023-01-26T07:21:06.078Z,21.50
2023-01-26T07:23:40.915Z,23.38
2023-01-26T07:26:11.259Z,24.30
2023-01-26T07:28:41.829Z,24.13
2023-01-26T07:31:14.716Z,23.15
2023-01-26T07:33:45.154Z,24.60
2023-01-26T07:36:15.753Z,24.40
2023-01-26T07:38:48.748Z,24.98
2023-01-26T07:41:19.109Z,26.00
2023-01-26T07:43:50.268Z,26.73
2023-01-26T07:46:22.257Z,24.67
2023-01-26T07:48:52.763Z,27.17
2023-01-26T07:51:23.685Z,26.07
2023-01-26T07:53:56.678Z,25.23
2023-01-26T07:56:26.942Z,26.40
2023-01-26T07:58:58.128Z,25.93
2023-01-26T08:01:28.499Z,24.73
2023-01-26T08:03:59.137Z,25.17
2023-01-26T08:06:29.446Z,24.30
2023-01-26T08:09:02.697Z,24.73
2023-01-26T08:11:33.023Z,25.13
2023-01-26T08:14:03.325Z,22.97
2023-01-26T08:16:33.626Z,22.10
2023-01-26T08:19:04.089Z,22.60
2023-01-26T08:21:34.414Z,24.33
2023-01-26T08:24:08.099Z,23.53
2023-01-26T08:26:38.389Z,23.00
2023-01-26T08:29:10.925Z,23.83
2023-01-26T08:31:41.569Z,22.73
2023-01-26T08:34:11.996Z,22.52
2023-01-26T08:36:42.360Z,21.90
2023-01-26T08:39:15.220Z,23.07
2023-01-26T08:41:45.490Z,23.50
2023-01-26T08:44:16.810Z,21.15
2023-01-26T08:46:47.245Z,22.20
2023-01-26T08:49:17.585Z,21.03
2023-01-26T08:51:47.884Z,20.07
2023-01-26T08:54:21.051Z,21.03
2023-01-26T08:56:51.380Z,21.63
2023-01-26T08:59:21.765Z,21.63
2023-01-26T09:01:52.234Z,21.63
2023-01-26T09:04:22.658Z,21.70
2023-01-26T09:06:53.002Z,20.93
2023-01-26T09:09:26.181Z,21.93
2023-01-26T09:12:01.606Z,22.27
2023-01-26T09:14:32.113Z,20.70
2023-01-26T09:17:02.397Z,21.03
2023-01-26T09:19:32.748Z,20.53
2023-01-26T09:22:03.066Z,21.43
2023-01-26T09:24:35.931Z,20.77
2023-01-26T09:27:06.334Z,21.30
2023-01-26T09:29:36.651Z,20.03
2023-01-26T09:32:07.575Z,20.77
2023-01-26T09:34:38.006Z,21.15
2023-01-26T09:37:10.232Z,20.10
2023-01-26T09:39:43.566Z,18.27
2023-01-26T09:42:44.550Z,18.80
2023-01-26T09:45:31.180Z,19.98
2023-01-26T09:48:28.194Z,18.20
2023-01-26T09:51:08.180Z,17.77
2023-01-26T09:53:49.513Z,19.10
2023-01-26T09:58:59.369Z,19.20
2023-01-26T10:01:39.223Z,19.67
2023-01-26T10:04:21.496Z,19.53
2023-01-26T10:06:52.709Z,20.13
2023-01-26T10:09:51.888Z,19.73
2023-01-26T10:12:28.665Z,19.03
2023-01-26T10:15:07.880Z,19.57
2023-01-26T10:17:42.596Z,19.60
2023-01-26T10:20:34.300Z,19.50
2023-01-26T10:23:08.822Z,19.90
2023-01-26T10:25:41.856Z,19.27
2023-01-26T10:28:21.368Z,19.13
2023-01-26T10:30:52.508Z,19.07
2023-01-26T10:33:29.837Z,19.93
2023-01-26T10:36:00.350Z,17.77
2023-01-26T10:38:43.262Z,21.40
2023-01-26T10:41:29.765Z,19.57
2023-01-26T10:44:06.618Z,20.77
2023-01-26T10:46:39.776Z,20.43
2023-01-26T10:49:19.407Z,19.40
2023-01-26T10:52:11.313Z,20.33
2023-01-26T10:54:44.006Z,16.97
2023-01-26T10:57:28.048Z,21.53
2023-01-26T11:00:08.401Z,19.97
2023-01-26T11:02:40.225Z,21.47
2023-01-26T11:05:23.117Z,19.57
2023-01-26T11:08:00.233Z,19.43
2023-01-26T11:10:34.771Z,19.33
2023-01-26T11:13:26.306Z,18.27
2023-01-26T11:16:17.441Z,17.27
2023-01-26T11:19:01.025Z,17.70
2023-01-26T11:21:39.247Z,18.00
2023-01-26T11:24:21.389Z,20.00
2023-01-26T11:27:17.047Z,18.10
2023-01-26T11:30:26.569Z,18.73
2023-01-26T11:33:05.012Z,18.37
2023-01-26T11:35:52.069Z,19.57
2023-01-26T11:38:35.717Z,17.40
2023-01-26T11:41:31.040Z,17.80
2023-01-26T11:44:39.377Z,18.33
2023-01-26T11:47:26.263Z,17.47
2023-01-26T11:50:33.710Z,17.40
2023-01-26T11:53:31.233Z,16.70
2023-01-26T11:56:35.898Z,17.40
2023-01-26T11:59:14.081Z,17.50
2023-01-26T12:01:52.916Z,16.67
2023-01-26T12:04:25.371Z,17.63
2023-01-26T12:07:06.701Z,15.73
2023-01-26T12:12:18.112Z,15.80
2023-01-26T12:14:55.407Z,16.67
2023-01-26T12:17:42.583Z,15.40
2023-01-26T12:20:31.751Z,16.60
2023-01-26T12:23:09.421Z,16.57
2023-01-26T12:25:43.582Z,15.90
2023-01-26T12:28:22.625Z,16.60
2023-01-26T12:31:04.299Z,16.30
2023-01-26T12:33:35.768Z,16.00
2023-01-26T12:36:25.823Z,16.23
2023-01-26T12:39:14.497Z,14.77
2023-01-26T12:42:15.075Z,15.03
2023-01-26T12:44:47.786Z,14.63
2023-01-26T12:47:24.435Z,14.93
2023-01-26T12:50:03.997Z,14.50
2023-01-26T12:52:41.570Z,15.10
2023-01-26T12:55:23.411Z,14.50
2023-01-26T12:57:59.151Z,16.23
2023-01-26T13:00:34.371Z,16.03
2023-01-26T13:03:09.497Z,16.00
2023-01-26T13:05:58.033Z,14.00
2023-01-26T13:08:53.996Z,14.17
2023-01-26T13:11:55.929Z,13.60
2023-01-26T13:14:41.712Z,13.57
2023-01-26T13:17:49.719Z,14.37
2023-01-26T13:20:48.516Z,13.40
2023-01-26T13:23:52.673Z,12.33
2023-01-26T13:26:48.375Z,13.13
2023-01-26T13:29:37.144Z,13.10
2023-01-26T13:32:59.719Z,12.37
2023-01-26T13:35:30.994Z,13.60
2023-01-26T13:40:39.467Z,11.67
2023-01-26T13:43:26.346Z,11.37
2023-01-26T13:46:14.186Z,11.20
2023-01-26T13:48:51.308Z,11.57
2023-01-26T13:51:24.190Z,10.90
2023-01-26T13:54:01.992Z,11.60
2023-01-26T13:56:35.445Z,11.57
2023-01-26T13:59:14.477Z,11.23
2023-01-26T14:01:51.448Z,10.30
2023-01-26T14:04:24.371Z,10.60
2023-01-26T14:06:59.464Z,11.83
2023-01-26T14:09:33.353Z,11.97
2023-01-26T14:12:06.964Z,12.93
2023-01-26T14:14:40.922Z,12.03
2023-01-26T14:17:29.389Z,11.57
2023-01-26T14:20:03.694Z,10.43
2023-01-26T14:22:34.139Z,11.20
2023-01-26T14:25:04.446Z,11.77
2023-01-26T14:27:41.143Z,12.80
2023-01-26T14:30:29.204Z,11.40
2023-01-26T14:33:08.472Z,11.52
2023-01-26T14:35:38.857Z,11.77
2023-01-26T14:38:18.072Z,11.77
2023-01-26T14:40:49.709Z,10.00
2023-01-26T14:43:20.865Z,10.73
2023-01-26T14:45:55.186Z,10.63
2023-01-26T14:48:32.733Z,10.63
2023-01-26T14:51:08.247Z,11.03
2023-01-26T14:53:38.659Z,11.17
2023-01-26T14:56:16.833Z,9.93
2023-01-26T14:58:47.131Z,10.00
2023-01-26T15:01:25.331Z,10.67
2023-01-26T15:04:05.331Z,10.97
2023-01-26T15:06:36.954Z,10.67
2023-01-26T15:09:21.429Z,10.23
2023-01-26T15:12:10.717Z,10.37
2023-01-26T15:14:51.808Z,10.03
2023-01-26T15:17:40.180Z,10.63
2023-01-26T15:20:46.838Z,10.13
2023-01-26T15:23:30.875Z,10.53
2023-01-26T15:26:10.092Z,9.80
2023-01-26T15:28:41.523Z,9.63
2023-01-26T15:31:32.454Z,8.97
2023-01-26T15:34:04.320Z,8.73
2023-01-26T15:36:50.390Z,9.70
2023-01-26T15:39:22.969Z,8.30
2023-01-26T15:42:14.479Z,9.33
2023-01-26T15:47:16.297Z,8.53
2023-01-26T15:49:46.654Z,8.82
2023-01-26T15:52:23.441Z,8.43
2023-01-26T15:54:54.288Z,8.73
2023-01-26T15:57:24.758Z,9.50
2023-01-26T15:59:55.080Z,9.53
2023-01-26T16:02:25.752Z,10.17
2023-01-26T16:04:56.147Z,9.55
2023-01-26T16:07:29.477Z,9.50
2023-01-26T16:10:01.267Z,9.50
2023-01-26T16:12:32.505Z,9.90
2023-01-26T16:15:03.072Z,8.90
2023-01-26T16:17:33.652Z,9.13
2023-01-26T16:20:04.366Z,9.23
2023-01-26T16:22:37.465Z,8.52
2023-01-26T16:25:22.282Z,8.60
2023-01-26T16:27:52.807Z,8.60
2023-01-26T16:30:23.486Z,9.40
2023-01-26T16:32:54.932Z,9.43
2023-01-26T16:35:26.932Z,9.17
2023-01-26T16:38:00.692Z,8.40
2023-01-26T16:40:31.122Z,8.97
2023-01-26T16:43:01.399Z,8.80
2023-01-26T16:45:31.692Z,9.13
2023-01-26T16:48:03.184Z,8.83
2023-01-26T16:50:33.439Z,9.27
2023-01-26T16:53:30.322Z,8.93
2023-01-26T16:56:00.652Z,8.10
2023-01-26T16:58:33.311Z,8.77
2023-01-26T17:01:04.009Z,8.67
2023-01-26T17:03:34.462Z,8.85
2023-01-26T17:06:04.801Z,8.50
2023-01-26T17:08:37.697Z,8.03
2023-01-26T17:11:08.426Z,9.10
2023-01-26T17:13:38.785Z,8.65
2023-01-26T17:16:16.643Z,9.47
2023-01-26T17:18:47.915Z,9.07
2023-01-26T17:23:56.456Z,8.60
2023-01-26T17:26:26.975Z,9.67
2023-01-26T17:28:58.911Z,10.48
2023-01-26T17:31:30.467Z,9.50
2023-01-26T17:34:00.748Z,10.83
2023-01-26T17:36:31.102Z,10.97
2023-01-26T17:39:04.052Z,11.40
2023-01-26T17:41:34.363Z,10.77
2023-01-26T17:44:04.984Z,10.27
2023-01-26T17:46:35.377Z,11.35
2023-01-26T17:49:06.284Z,11.90
2023-01-26T17:51:36.756Z,11.93
2023-01-26T17:54:09.764Z,11.20
2023-01-26T17:56:40.132Z,10.07
2023-01-26T17:59:10.546Z,10.87
2023-01-26T18:01:40.906Z,10.30
2023-01-26T18:04:11.540Z,25.60
2023-01-26T18:06:42.006Z,13.07
2023-01-26T18:09:15.150Z,10.87
2023-01-26T18:11:45.509Z,10.53
2023-01-26T18:14:15.933Z,10.13
2023-01-26T18:16:46.411Z,10.63
2023-01-26T18:19:16.835Z,10.35
2023-01-26T18:21:49.030Z,11.70
2023-01-26T18:24:23.093Z,11.03
2023-01-26T18:26:53.556Z,11.17
2023-01-26T18:29:23.843Z,10.67
2023-01-26T18:31:54.208Z,10.50
2023-01-26T18:34:24.572Z,10.27
2023-01-26T18:36:54.905Z,11.83
2023-01-26T18:39:28.977Z,10.83
2023-01-26T18:41:59.317Z,12.30
2023-01-26T18:44:29.839Z,11.10
2023-01-26T18:47:00.270Z,12.20
2023-01-26T18:49:30.699Z,11.90
2023-01-26T18:52:01.020Z,13.60
2023-01-26T18:54:34.265Z,15.60
2023-01-26T18:57:05.000Z,16.33
2023-01-26T18:59:35.378Z,16.02
2023-01-26T19:02:05.773Z,24.87
2023-01-26T19:04:36.529Z,16.43
2023-01-26T19:07:06.896Z,16.10
2023-01-26T19:09:40.257Z,15.97
2023-01-26T19:12:12.009Z,16.03
2023-01-26T19:14:42.281Z,15.17
2023-01-26T19:17:12.691Z,15.43
2023-01-26T19:19:43.137Z,15.67
2023-01-26T19:22:13.428Z,15.57
2023-01-26T19:24:46.373Z,14.77
2023-01-26T19:27:16.602Z,14.60
2023-01-26T19:29:46.906Z,16.37
2023-01-26T19:32:17.202Z,16.67
2023-01-26T19:34:47.590Z,14.07
2023-01-26T19:37:17.956Z,14.70
2023-01-26T19:39:50.907Z,15.20
2023-01-26T19:42:21.230Z,13.07
2023-01-26T19:44:51.550Z,14.93
2023-01-26T19:47:21.756Z,14.83
2023-01-26T19:49:52.072Z,14.57
2023-01-26T19:52:22.309Z,14.87
2023-01-26T19:54:55.304Z,16.93
2023-01-26T19:57:26.079Z,23.70
2023-01-26T19:59:56.507Z,18.75
2023-01-26T20:02:26.843Z,15.17
2023-01-26T20:04:57.230Z,15.13
2023-01-26T20:07:27.711Z,14.33
2023-01-26T20:10:00.652Z,15.83
2023-01-26T20:12:30.939Z,14.87
2023-01-26T20:15:01.258Z,14.40
2023-01-26T20:17:32.128Z,10.53
2023-01-26T20:20:02.489Z,13.57
2023-01-26T20:22:34.187Z,12.83
2023-01-26T20:25:11.351Z,12.40
2023-01-26T20:27:42.252Z,13.83
2023-01-26T20:30:14.874Z,13.68
2023-01-26T20:32:45.251Z,14.23
2023-01-26T20:35:16.926Z,15.00
2023-01-26T20:37:47.209Z,14.90
2023-01-26T20:40:22.680Z,13.60
2023-01-26T20:42:53.209Z,13.80
2023-01-26T20:45:25.005Z,13.93
2023-01-26T20:47:55.608Z,13.87
2023-01-26T20:50:26.230Z,12.70
2023-01-26T20:52:58.777Z,13.65
2023-01-26T20:55:31.785Z,12.73
2023-01-26T20:58:02.108Z,12.87
2023-01-26T21:00:33.139Z,12.87
2023-01-26T21:03:03.524Z,11.93
2023-01-26T21:05:33.991Z,13.03
2023-01-26T21:08:04.370Z,13.00
2023-01-26T21:10:37.770Z,14.07
2023-01-26T21:13:08.073Z,13.07
2023-01-26T21:15:38.420Z,13.93
2023-01-26T21:18:08.782Z,13.60
2023-01-26T21:20:39.056Z,14.40
2023-01-26T21:23:09.376Z,13.30
2023-01-26T21:25:42.327Z,12.70
2023-01-26T21:28:12.577Z,13.67
2023-01-26T21:30:42.904Z,13.00
2023-01-26T21:33:14.933Z,12.50
2023-01-26T21:35:45.245Z,12.27
2023-01-26T21:38:15.602Z,12.60
2023-01-26T21:40:48.455Z,11.83
2023-01-26T21:43:18.771Z,12.80
2023-01-26T21:45:58.183Z,13.20
2023-01-26T21:48:35.953Z,12.47
2023-01-26T21:51:18.821Z,11.53
2023-01-26T21:53:49.286Z,11.03
2023-01-26T21:56:24.795Z,11.67
2023-01-26T21:58:56.761Z,11.73
2023-01-26T22:01:28.170Z,12.13
2023-01-26T22:03:58.963Z,11.73
2023-01-26T22:06:29.779Z,11.48
2023-01-26T22:09:01.110Z,11.57
2023-01-26T22:11:34.123Z,11.57
2023-01-26T22:14:04.818Z,11.10
2023-01-26T22:16:35.725Z,10.55
2023-01-26T22:19:06.456Z,10.73
2023-01-26T22:21:37.246Z,10.57
2023-01-26T22:24:11.797Z,10.20
2023-01-26T22:26:45.481Z,11.23
2023-01-26T22:29:16.010Z,10.50
2023-01-26T22:31:46.502Z,10.32
2023-01-26T22:34:16.877Z,9.68
2023-01-26T22:36:47.260Z,11.30
2023-01-26T22:39:17.626Z,12.73
2023-01-26T22:41:50.503Z,10.70
2023-01-26T22:44:21.071Z,12.47
2023-01-26T22:46:52.647Z,11.23
2023-01-26T22:49:22.953Z,12.27
2023-01-26T22:51:53.405Z,13.13
2023-01-26T22:54:24.320Z,12.77
2023-01-26T22:56:57.306Z,13.65
2023-01-26T22:59:27.989Z,13.13
2023-01-26T23:01:58.338Z,13.88
2023-01-26T23:04:29.031Z,13.53
2023-01-26T23:06:59.462Z,15.13
2023-01-26T23:09:29.779Z,15.20
2023-01-26T23:12:05.810Z,16.97
2023-01-26T23:14:37.040Z,14.93
2023-01-26T23:19:38.956Z,14.98
2023-01-26T23:22:09.311Z,14.90
2023-01-26T23:24:39.633Z,15.80
2023-01-26T23:27:12.503Z,14.33
2023-01-26T23:29:42.837Z,14.77
2023-01-26T23:32:13.188Z,13.20
2023-01-26T23:34:43.487Z,12.97
2023-01-26T23:37:13.754Z,13.53
2023-01-26T23:39:44.032Z,13.20
2023-01-26T23:42:16.979Z,10.73
2023-01-26T23:44:47.209Z,13.83
2023-01-26T23:47:17.585Z,14.67
2023-01-26T23:49:47.934Z,13.20
2023-01-26T23:52:18.252Z,13.63
2023-01-26T23:54:48.541Z,14.03
2023-01-26T23:57:21.498Z,14.37
2023-01-26T23:59:51.772Z,14.33
